• Join FlightAware (Why Join?)
  • Login
  • US Flag 
08:13AM EST


 

Airport Tracker/Info


-or-


 

Live Flight TrackerFlight Track Log ✈ N194A ✈ 19-Oct-2013 ✈ KSUX - Y14

Flight Track Log - Related Links

Times and Time Zones

All times are in EDT time to prevent confusion due to time zone crossing. See the N194A flight status page for this flight to view local times or setup timezone preferences in your user account.

Time Position Orientation Groundspeed Altitude Reporting Facility
EDT Latitude Longitude Course Direction KTS MPH feet Rate Location/Type
05:35PM 42.4681 -96.4275 344° North 113 130 4,100  Level Minneapolis Center
05:36PM 42.4919 -96.4361 345° North 89 102 4,800 660 Climbing Minneapolis Center
05:37PM 42.5158 -96.4450 345° North 89 102 5,500 780 Climbing Minneapolis Center
05:38PM 42.5397 -96.4539 345° North 89 102 6,400 480 Climbing Minneapolis Center
05:39PM 42.5902 -96.4568 344° North  Level FlightAware Approximate
05:39PM 42.5686 -96.4647 345° North 101 116 6,600  Level Minneapolis Center
05:40PM 42.6215 -96.4689 344° North  Level FlightAware Approximate
05:40PM 42.6064 -96.4778 346° North 129 148 6,400  Level Minneapolis Center
05:41PM 42.6464 -96.4906 347° North 144 166 6,600 60 Climbing Minneapolis Center
05:42PM 42.6908 -96.5086 343° North 140 161 6,600  Level Minneapolis Center
05:43PM 42.7306 -96.5239 344° North 142 163 6,600  Level Minneapolis Center
05:44PM 42.7694 -96.5375 346° North 144 166 6,600  Level Minneapolis Center
05:45PM 42.8086 -96.5533 343° North 146 168 6,600  Level Minneapolis Center
05:46PM 42.8475 -96.5656 347° North 144 166 6,600  Level Minneapolis Center
05:47PM 42.8856 -96.5811 343° North 143 165 6,600  Level Minneapolis Center
05:48PM 42.9233 -96.5961 344° North 142 163 6,600  Level Minneapolis Center
05:49PM 42.9617 -96.6106 345° North 142 163 6,600  Level Minneapolis Center
05:50PM 42.9997 -96.6283 341° North 143 165 6,600  Level Minneapolis Center
05:51PM 43.0367 -96.6431 344° North 142 163 6,600  Level Minneapolis Center
05:52PM 43.0744 -96.6569 345° North 141 162 6,600  Level Minneapolis Center
05:53PM 43.1189 -96.6744 344° North 139 160 6,600 -60 Level Minneapolis Center
05:54PM 43.1531 -96.6872 345° North 136 157 6,500 -60 Descending Minneapolis Center
05:55PM 43.1864 -96.7019 342° North 131 151 6,500  Level Minneapolis Center
05:57PM 43.2298 -96.7099 352° North  Level FlightAware Approximate
05:57PM 43.2511 -96.7247 352° North 123 142 6,600  Level Minneapolis Center
05:58PM 43.2850 -96.7364 346° North 123 142 5,800 -780 Descending Minneapolis Center
06:00PM 43.3249 -96.7517 344° North  Level FlightAware Approximate
06:07PM 43.4500 -96.8000 342° North  Level FlightAware Approximate
06:08PM 43.4549 -96.8013 342° North  Level Estimated
06:09PM 43.4500 -96.8000 342° North  Level FlightAware Approximate
06:10PM 43.4549 -96.8013 342° North  Level Estimated